Terminal Aerodrome Forecast
Issued by NWS

Home | Current Version | Previous Version | Text Only | Print | Product List | Glossary On
Versions: 1 2 3 4 5 6 7 8 9 10 11 12 13 14 15 16
000
FTUS41 KBOX 242320
TAFBED
TAF
KBED 242320Z 2500/2524 14006KT P6SM SCT250
     FM250200 VRB03KT P6SM BKN250
     FM251000 06007KT P6SM OVC050
     FM251500 07010G19KT 2SM -RA BR OVC008
     FM252100 08011G19KT 1/2SM -RA FG OVC003=

USA.gov is the U.S. government's official web portal to all federal, state and local government web resources and services.